sensor_id;sensor_type;location;lat;lon;timestamp;pressure;altitude;pressure_sealevel;temperature
17142;BMP180;32805;53.556;9.944;2023-02-13T00:00:48;103558.00;;;7.90
17142;BMP180;32805;53.556;9.944;2023-02-13T00:03:17;103570.00;;;8.00
17142;BMP180;32805;53.556;9.944;2023-02-13T00:05:45;103566.00;;;8.00
17142;BMP180;32805;53.556;9.944;2023-02-13T00:08:14;103563.00;;;8.00
17142;BMP180;32805;53.556;9.944;2023-02-13T00:10:41;103567.00;;;8.00
17142;BMP180;32805;53.556;9.944;2023-02-13T00:13:09;103562.00;;;7.90
17142;BMP180;32805;53.556;9.944;2023-02-13T00:15:37;103567.00;;;8.00
17142;BMP180;32805;53.556;9.944;2023-02-13T00:18:04;103568.00;;;8.00
17142;BMP180;32805;53.556;9.944;2023-02-13T00:20:33;103571.00;;;8.00
17142;BMP180;32805;53.556;9.944;2023-02-13T00:23:01;103574.00;;;7.90
17142;BMP180;32805;53.556;9.944;2023-02-13T00:25:29;103541.00;;;7.90
17142;BMP180;32805;53.556;9.944;2023-02-13T00:27:57;103560.00;;;7.90
17142;BMP180;32805;53.556;9.944;2023-02-13T00:30:26;103559.00;;;7.90
17142;BMP180;32805;53.556;9.944;2023-02-13T00:32:53;103563.00;;;7.90
17142;BMP180;32805;53.556;9.944;2023-02-13T00:35:23;103561.00;;;7.90
17142;BMP180;32805;53.556;9.944;2023-02-13T00:37:52;103549.00;;;7.80
17142;BMP180;32805;53.556;9.944;2023-02-13T00:40:23;103551.00;;;7.80
17142;BMP180;32805;53.556;9.944;2023-02-13T00:42:50;103557.00;;;7.80
17142;BMP180;32805;53.556;9.944;2023-02-13T00:45:18;103557.00;;;7.80
17142;BMP180;32805;53.556;9.944;2023-02-13T00:47:46;103558.00;;;7.80
17142;BMP180;32805;53.556;9.944;2023-02-13T00:50:13;103551.00;;;7.80
17142;BMP180;32805;53.556;9.944;2023-02-13T00:52:41;103554.00;;;7.80
17142;BMP180;32805;53.556;9.944;2023-02-13T00:55:12;103561.00;;;7.80
17142;BMP180;32805;53.556;9.944;2023-02-13T00:57:39;103558.00;;;7.80
17142;BMP180;32805;53.556;9.944;2023-02-13T01:00:10;103551.00;;;7.80
17142;BMP180;32805;53.556;9.944;2023-02-13T01:02:40;103554.00;;;7.80
17142;BMP180;32805;53.556;9.944;2023-02-13T01:05:07;103559.00;;;7.80
17142;BMP180;32805;53.556;9.944;2023-02-13T01:07:35;103545.00;;;7.80
17142;BMP180;32805;53.556;9.944;2023-02-13T01:10:05;103557.00;;;7.80
17142;BMP180;32805;53.556;9.944;2023-02-13T01:12:34;103552.00;;;7.80
17142;BMP180;32805;53.556;9.944;2023-02-13T01:15:02;103546.00;;;7.80
17142;BMP180;32805;53.556;9.944;2023-02-13T01:17:30;103551.00;;;7.80
17142;BMP180;32805;53.556;9.944;2023-02-13T01:19:57;103552.00;;;7.80
17142;BMP180;32805;53.556;9.944;2023-02-13T01:22:25;103551.00;;;7.80
17142;BMP180;32805;53.556;9.944;2023-02-13T01:24:52;103553.00;;;7.70
17142;BMP180;32805;53.556;9.944;2023-02-13T01:27:20;103545.00;;;7.80
17142;BMP180;32805;53.556;9.944;2023-02-13T01:29:50;103549.00;;;7.80
17142;BMP180;32805;53.556;9.944;2023-02-13T01:32:18;103535.00;;;7.70
17142;BMP180;32805;53.556;9.944;2023-02-13T01:34:46;103542.00;;;7.70
17142;BMP180;32805;53.556;9.944;2023-02-13T01:37:13;103545.00;;;7.80
17142;BMP180;32805;53.556;9.944;2023-02-13T01:39:41;103537.00;;;7.80
17142;BMP180;32805;53.556;9.944;2023-02-13T01:42:15;103535.00;;;7.80
17142;BMP180;32805;53.556;9.944;2023-02-13T01:44:46;103532.00;;;7.70
17142;BMP180;32805;53.556;9.944;2023-02-13T01:47:22;103522.00;;;7.70
17142;BMP180;32805;53.556;9.944;2023-02-13T01:49:58;103525.00;;;7.70
17142;BMP180;32805;53.556;9.944;2023-02-13T01:52:29;103518.00;;;7.70
17142;BMP180;32805;53.556;9.944;2023-02-13T01:54:57;103523.00;;;7.70
17142;BMP180;32805;53.556;9.944;2023-02-13T01:57:27;103524.00;;;7.80
17142;BMP180;32805;53.556;9.944;2023-02-13T02:00:01;103514.00;;;7.80
17142;BMP180;32805;53.556;9.944;2023-02-13T02:02:48;103518.00;;;7.70
17142;BMP180;32805;53.556;9.944;2023-02-13T02:05:23;103508.00;;;7.80
17142;BMP180;32805;53.556;9.944;2023-02-13T02:07:53;103508.00;;;7.80
17142;BMP180;32805;53.556;9.944;2023-02-13T02:10:23;103516.00;;;7.80
17142;BMP180;32805;53.556;9.944;2023-02-13T02:12:54;103509.00;;;7.70
17142;BMP180;32805;53.556;9.944;2023-02-13T02:15:27;103503.00;;;7.70
17142;BMP180;32805;53.556;9.944;2023-02-13T02:17:56;103505.00;;;7.70
17142;BMP180;32805;53.556;9.944;2023-02-13T02:20:35;103503.00;;;7.70
17142;BMP180;32805;53.556;9.944;2023-02-13T02:23:46;103485.00;;;7.80
17142;BMP180;32805;53.556;9.944;2023-02-13T02:26:37;103504.00;;;7.70
17142;BMP180;32805;53.556;9.944;2023-02-13T02:32:18;103497.00;;;7.70
17142;BMP180;32805;53.556;9.944;2023-02-13T02:34:55;103495.00;;;7.70
17142;BMP180;32805;53.556;9.944;2023-02-13T02:37:41;103503.00;;;7.70
17142;BMP180;32805;53.556;9.944;2023-02-13T02:40:20;103510.00;;;7.70
17142;BMP180;32805;53.556;9.944;2023-02-13T02:43:00;103502.00;;;7.60
17142;BMP180;32805;53.556;9.944;2023-02-13T02:45:39;103506.00;;;7.70
17142;BMP180;32805;53.556;9.944;2023-02-13T02:48:21;103497.00;;;7.60
17142;BMP180;32805;53.556;9.944;2023-02-13T02:51:11;103497.00;;;7.70
17142;BMP180;32805;53.556;9.944;2023-02-13T02:53:47;103490.00;;;7.60
17142;BMP180;32805;53.556;9.944;2023-02-13T02:56:22;103486.00;;;7.60
17142;BMP180;32805;53.556;9.944;2023-02-13T02:58:55;103492.00;;;7.60
17142;BMP180;32805;53.556;9.944;2023-02-13T03:01:41;103500.00;;;7.70
17142;BMP180;32805;53.556;9.944;2023-02-13T03:04:32;103487.00;;;7.70
17142;BMP180;32805;53.556;9.944;2023-02-13T03:07:20;103494.00;;;7.70
17142;BMP180;32805;53.556;9.944;2023-02-13T03:09:51;103493.00;;;7.70
17142;BMP180;32805;53.556;9.944;2023-02-13T03:12:38;103495.00;;;7.80
17142;BMP180;32805;53.556;9.944;2023-02-13T03:15:26;103498.00;;;7.70
17142;BMP180;32805;53.556;9.944;2023-02-13T03:17:54;103503.00;;;7.70
17142;BMP180;32805;53.556;9.944;2023-02-13T03:20:45;103491.00;;;7.60
17142;BMP180;32805;53.556;9.944;2023-02-13T03:23:40;103502.00;;;7.70
17142;BMP180;32805;53.556;9.944;2023-02-13T03:26:31;103508.00;;;7.70
17142;BMP180;32805;53.556;9.944;2023-02-13T03:29:14;103503.00;;;7.60
17142;BMP180;32805;53.556;9.944;2023-02-13T03:32:09;103514.00;;;7.60
17142;BMP180;32805;53.556;9.944;2023-02-13T03:34:45;103496.00;;;7.50
17142;BMP180;32805;53.556;9.944;2023-02-13T03:37:37;103499.00;;;7.60
17142;BMP180;32805;53.556;9.944;2023-02-13T03:40:25;103508.00;;;7.50
17142;BMP180;32805;53.556;9.944;2023-02-13T03:43:00;103506.00;;;7.50
17142;BMP180;32805;53.556;9.944;2023-02-13T03:45:33;103499.00;;;7.50
17142;BMP180;32805;53.556;9.944;2023-02-13T03:48:25;103507.00;;;7.60
17142;BMP180;32805;53.556;9.944;2023-02-13T03:51:15;103508.00;;;7.50
17142;BMP180;32805;53.556;9.944;2023-02-13T03:53:49;103495.00;;;7.60
17142;BMP180;32805;53.556;9.944;2023-02-13T03:56:20;103501.00;;;7.60
17142;BMP180;32805;53.556;9.944;2023-02-13T03:59:08;103512.00;;;7.60
17142;BMP180;32805;53.556;9.944;2023-02-13T04:01:50;103519.00;;;7.60
17142;BMP180;32805;53.556;9.944;2023-02-13T04:04:25;103512.00;;;7.60
17142;BMP180;32805;53.556;9.944;2023-02-13T04:06:59;103517.00;;;7.50
17142;BMP180;32805;53.556;9.944;2023-02-13T04:09:30;103510.00;;;7.60
17142;BMP180;32805;53.556;9.944;2023-02-13T04:12:03;103511.00;;;7.60
17142;BMP180;32805;53.556;9.944;2023-02-13T04:14:35;103525.00;;;7.70
17142;BMP180;32805;53.556;9.944;2023-02-13T04:17:05;103511.00;;;7.60
17142;BMP180;32805;53.556;9.944;2023-02-13T04:19:34;103512.00;;;7.60
17142;BMP180;32805;53.556;9.944;2023-02-13T04:22:02;103503.00;;;7.50
17142;BMP180;32805;53.556;9.944;2023-02-13T04:24:31;103503.00;;;7.50
17142;BMP180;32805;53.556;9.944;2023-02-13T04:26:58;103508.00;;;7.50
17142;BMP180;32805;53.556;9.944;2023-02-13T04:29:26;103508.00;;;7.50
17142;BMP180;32805;53.556;9.944;2023-02-13T04:31:53;103502.00;;;7.40
17142;BMP180;32805;53.556;9.944;2023-02-13T04:34:21;103504.00;;;7.40
17142;BMP180;32805;53.556;9.944;2023-02-13T04:36:49;103504.00;;;7.50
17142;BMP180;32805;53.556;9.944;2023-02-13T04:39:16;103495.00;;;7.50
17142;BMP180;32805;53.556;9.944;2023-02-13T04:41:45;103497.00;;;7.50
17142;BMP180;32805;53.556;9.944;2023-02-13T04:44:12;103508.00;;;7.50
17142;BMP180;32805;53.556;9.944;2023-02-13T04:46:40;103506.00;;;7.50
17142;BMP180;32805;53.556;9.944;2023-02-13T04:49:09;103501.00;;;7.50
17142;BMP180;32805;53.556;9.944;2023-02-13T04:51:36;103499.00;;;7.50
17142;BMP180;32805;53.556;9.944;2023-02-13T04:54:04;103494.00;;;7.50
17142;BMP180;32805;53.556;9.944;2023-02-13T04:56:31;103493.00;;;7.60
17142;BMP180;32805;53.556;9.944;2023-02-13T04:59:00;103490.00;;;7.60
17142;BMP180;32805;53.556;9.944;2023-02-13T05:01:28;103490.00;;;7.50
17142;BMP180;32805;53.556;9.944;2023-02-13T05:03:56;103503.00;;;7.50
17142;BMP180;32805;53.556;9.944;2023-02-13T05:06:23;103492.00;;;7.50
17142;BMP180;32805;53.556;9.944;2023-02-13T05:08:51;103492.00;;;7.50
17142;BMP180;32805;53.556;9.944;2023-02-13T05:11:18;103502.00;;;7.60
17142;BMP180;32805;53.556;9.944;2023-02-13T05:13:46;103500.00;;;7.60
17142;BMP180;32805;53.556;9.944;2023-02-13T05:16:15;103492.00;;;7.60
17142;BMP180;32805;53.556;9.944;2023-02-13T05:18:42;103500.00;;;7.70
17142;BMP180;32805;53.556;9.944;2023-02-13T05:21:10;103504.00;;;7.70
17142;BMP180;32805;53.556;9.944;2023-02-13T05:23:55;103497.00;;;7.70
17142;BMP180;32805;53.556;9.944;2023-02-13T05:26:23;103505.00;;;7.70
17142;BMP180;32805;53.556;9.944;2023-02-13T05:28:50;103491.00;;;7.70
17142;BMP180;32805;53.556;9.944;2023-02-13T05:31:36;103498.00;;;7.70
17142;BMP180;32805;53.556;9.944;2023-02-13T05:34:04;103504.00;;;7.70
17142;BMP180;32805;53.556;9.944;2023-02-13T05:36:32;103505.00;;;7.70
17142;BMP180;32805;53.556;9.944;2023-02-13T05:38:59;103497.00;;;7.70
17142;BMP180;32805;53.556;9.944;2023-02-13T05:41:27;103498.00;;;7.60
17142;BMP180;32805;53.556;9.944;2023-02-13T05:43:55;103499.00;;;7.70
17142;BMP180;32805;53.556;9.944;2023-02-13T05:46:22;103513.00;;;7.60
17142;BMP180;32805;53.556;9.944;2023-02-13T05:48:51;103502.00;;;7.60
17142;BMP180;32805;53.556;9.944;2023-02-13T05:51:19;103502.00;;;7.60
17142;BMP180;32805;53.556;9.944;2023-02-13T05:53:46;103495.00;;;7.60
17142;BMP180;32805;53.556;9.944;2023-02-13T05:56:14;103502.00;;;7.60
17142;BMP180;32805;53.556;9.944;2023-02-13T05:58:42;103499.00;;;7.60
17142;BMP180;32805;53.556;9.944;2023-02-13T06:01:10;103507.00;;;7.60
17142;BMP180;32805;53.556;9.944;2023-02-13T06:03:37;103519.00;;;7.70
17142;BMP180;32805;53.556;9.944;2023-02-13T06:06:07;103517.00;;;7.70
17142;BMP180;32805;53.556;9.944;2023-02-13T06:08:35;103518.00;;;7.70
17142;BMP180;32805;53.556;9.944;2023-02-13T06:11:03;103511.00;;;7.70
17142;BMP180;32805;53.556;9.944;2023-02-13T06:13:31;103532.00;;;7.70
17142;BMP180;32805;53.556;9.944;2023-02-13T06:15:58;103519.00;;;7.70
17142;BMP180;32805;53.556;9.944;2023-02-13T06:18:26;103524.00;;;7.70
17142;BMP180;32805;53.556;9.944;2023-02-13T06:20:53;103524.00;;;7.70
17142;BMP180;32805;53.556;9.944;2023-02-13T06:23:23;103528.00;;;7.70
17142;BMP180;32805;53.556;9.944;2023-02-13T06:25:50;103518.00;;;7.70
17142;BMP180;32805;53.556;9.944;2023-02-13T06:28:18;103518.00;;;7.80
17142;BMP180;32805;53.556;9.944;2023-02-13T06:30:46;103518.00;;;7.80
17142;BMP180;32805;53.556;9.944;2023-02-13T06:33:14;103524.00;;;7.80
17142;BMP180;32805;53.556;9.944;2023-02-13T06:35:42;103537.00;;;7.70
17142;BMP180;32805;53.556;9.944;2023-02-13T06:38:09;103527.00;;;7.70
17142;BMP180;32805;53.556;9.944;2023-02-13T06:40:38;103532.00;;;7.70
17142;BMP180;32805;53.556;9.944;2023-02-13T06:43:06;103538.00;;;7.70
17142;BMP180;32805;53.556;9.944;2023-02-13T06:45:33;103539.00;;;7.60
17142;BMP180;32805;53.556;9.944;2023-02-13T06:48:01;103552.00;;;7.60
17142;BMP180;32805;53.556;9.944;2023-02-13T06:50:28;103550.00;;;7.50
17142;BMP180;32805;53.556;9.944;2023-02-13T06:52:56;103548.00;;;7.60
17142;BMP180;32805;53.556;9.944;2023-02-13T06:55:24;103557.00;;;7.60
17142;BMP180;32805;53.556;9.944;2023-02-13T06:57:52;103562.00;;;7.50
17142;BMP180;32805;53.556;9.944;2023-02-13T07:00:20;103566.00;;;7.50
17142;BMP180;32805;53.556;9.944;2023-02-13T07:02:51;103555.00;;;7.60
17142;BMP180;32805;53.556;9.944;2023-02-13T07:05:19;103573.00;;;7.60
17142;BMP180;32805;53.556;9.944;2023-02-13T07:07:46;103572.00;;;7.60
17142;BMP180;32805;53.556;9.944;2023-02-13T07:10:14;103583.00;;;7.60
17142;BMP180;32805;53.556;9.944;2023-02-13T07:12:42;103567.00;;;7.50
17142;BMP180;32805;53.556;9.944;2023-02-13T07:15:16;103562.00;;;7.60
17142;BMP180;32805;53.556;9.944;2023-02-13T07:17:43;103573.00;;;7.50
17142;BMP180;32805;53.556;9.944;2023-02-13T07:20:11;103582.00;;;7.40
17142;BMP180;32805;53.556;9.944;2023-02-13T07:22:39;103577.00;;;7.50
17142;BMP180;32805;53.556;9.944;2023-02-13T07:25:07;103573.00;;;7.50
17142;BMP180;32805;53.556;9.944;2023-02-13T07:27:35;103572.00;;;7.50
17142;BMP180;32805;53.556;9.944;2023-02-13T07:30:03;103568.00;;;7.50
17142;BMP180;32805;53.556;9.944;2023-02-13T07:32:31;103557.00;;;7.50
17142;BMP180;32805;53.556;9.944;2023-02-13T07:34:59;103561.00;;;7.50
17142;BMP180;32805;53.556;9.944;2023-02-13T07:37:28;103561.00;;;7.50
17142;BMP180;32805;53.556;9.944;2023-02-13T07:39:56;103575.00;;;7.60
17142;BMP180;32805;53.556;9.944;2023-02-13T07:42:24;103571.00;;;7.60
17142;BMP180;32805;53.556;9.944;2023-02-13T07:44:51;103584.00;;;7.60
17142;BMP180;32805;53.556;9.944;2023-02-13T07:47:19;103585.00;;;7.60
17142;BMP180;32805;53.556;9.944;2023-02-13T07:49:48;103592.00;;;7.50
17142;BMP180;32805;53.556;9.944;2023-02-13T07:52:16;103589.00;;;7.60
17142;BMP180;32805;53.556;9.944;2023-02-13T07:54:43;103594.00;;;7.60
17142;BMP180;32805;53.556;9.944;2023-02-13T07:57:13;103597.00;;;7.60
17142;BMP180;32805;53.556;9.944;2023-02-13T07:59:41;103594.00;;;7.60
17142;BMP180;32805;53.556;9.944;2023-02-13T08:02:10;103595.00;;;7.70
17142;BMP180;32805;53.556;9.944;2023-02-13T08:04:38;103592.00;;;7.60
17142;BMP180;32805;53.556;9.944;2023-02-13T08:07:07;103599.00;;;7.60
17142;BMP180;32805;53.556;9.944;2023-02-13T08:09:35;103599.00;;;7.60
17142;BMP180;32805;53.556;9.944;2023-02-13T08:12:20;103599.00;;;7.70
17142;BMP180;32805;53.556;9.944;2023-02-13T08:14:48;103604.00;;;7.70
17142;BMP180;32805;53.556;9.944;2023-02-13T08:17:16;103596.00;;;7.70
17142;BMP180;32805;53.556;9.944;2023-02-13T08:19:43;103601.00;;;7.80
17142;BMP180;32805;53.556;9.944;2023-02-13T08:22:12;103594.00;;;7.80
17142;BMP180;32805;53.556;9.944;2023-02-13T08:24:40;103594.00;;;7.80
17142;BMP180;32805;53.556;9.944;2023-02-13T08:27:11;103591.00;;;7.80
17142;BMP180;32805;53.556;9.944;2023-02-13T08:29:38;103588.00;;;7.90
17142;BMP180;32805;53.556;9.944;2023-02-13T08:32:06;103580.00;;;7.90
17142;BMP180;32805;53.556;9.944;2023-02-13T08:34:34;103578.00;;;7.90
17142;BMP180;32805;53.556;9.944;2023-02-13T08:37:02;103585.00;;;8.00
17142;BMP180;32805;53.556;9.944;2023-02-13T08:39:31;103580.00;;;8.00
17142;BMP180;32805;53.556;9.944;2023-02-13T08:41:58;103576.00;;;8.00
17142;BMP180;32805;53.556;9.944;2023-02-13T08:44:26;103582.00;;;8.10
17142;BMP180;32805;53.556;9.944;2023-02-13T08:46:54;103586.00;;;8.00
17142;BMP180;32805;53.556;9.944;2023-02-13T08:49:22;103596.00;;;8.10
17142;BMP180;32805;53.556;9.944;2023-02-13T08:51:49;103590.00;;;8.00
17142;BMP180;32805;53.556;9.944;2023-02-13T08:54:17;103595.00;;;8.00
17142;BMP180;32805;53.556;9.944;2023-02-13T08:56:46;103595.00;;;8.00
17142;BMP180;32805;53.556;9.944;2023-02-13T08:59:13;103594.00;;;8.10
17142;BMP180;32805;53.556;9.944;2023-02-13T09:01:41;103599.00;;;8.10
17142;BMP180;32805;53.556;9.944;2023-02-13T09:04:09;103594.00;;;8.20
17142;BMP180;32805;53.556;9.944;2023-02-13T09:06:37;103588.00;;;8.30
17142;BMP180;32805;53.556;9.944;2023-02-13T09:09:04;103598.00;;;8.30
17142;BMP180;32805;53.556;9.944;2023-02-13T09:11:32;103592.00;;;8.30
17142;BMP180;32805;53.556;9.944;2023-02-13T09:14:01;103601.00;;;8.30
17142;BMP180;32805;53.556;9.944;2023-02-13T09:16:29;103593.00;;;8.20
17142;BMP180;32805;53.556;9.944;2023-02-13T09:18:57;103593.00;;;8.20
17142;BMP180;32805;53.556;9.944;2023-02-13T09:21:24;103593.00;;;8.30
17142;BMP180;32805;53.556;9.944;2023-02-13T09:23:52;103589.00;;;8.40
17142;BMP180;32805;53.556;9.944;2023-02-13T09:26:20;103590.00;;;8.40
17142;BMP180;32805;53.556;9.944;2023-02-13T09:28:48;103591.00;;;8.40
17142;BMP180;32805;53.556;9.944;2023-02-13T09:31:19;103585.00;;;8.50
17142;BMP180;32805;53.556;9.944;2023-02-13T09:33:47;103576.00;;;8.50
17142;BMP180;32805;53.556;9.944;2023-02-13T09:36:17;103572.00;;;8.50
17142;BMP180;32805;53.556;9.944;2023-02-13T09:38:46;103601.00;;;8.50
17142;BMP180;32805;53.556;9.944;2023-02-13T09:41:17;103576.00;;;8.60
17142;BMP180;32805;53.556;9.944;2023-02-13T09:43:47;103583.00;;;8.60
17142;BMP180;32805;53.556;9.944;2023-02-13T09:46:19;103588.00;;;8.60
17142;BMP180;32805;53.556;9.944;2023-02-13T09:48:50;103587.00;;;8.60
17142;BMP180;32805;53.556;9.944;2023-02-13T09:51:20;103587.00;;;8.60
17142;BMP180;32805;53.556;9.944;2023-02-13T09:53:51;103581.00;;;8.70
17142;BMP180;32805;53.556;9.944;2023-02-13T09:56:34;103582.00;;;8.70
17142;BMP180;32805;53.556;9.944;2023-02-13T09:59:14;103587.00;;;8.70
17142;BMP180;32805;53.556;9.944;2023-02-13T10:01:47;103596.00;;;8.70
17142;BMP180;32805;53.556;9.944;2023-02-13T10:04:30;103588.00;;;8.70
17142;BMP180;32805;53.556;9.944;2023-02-13T10:07:09;103583.00;;;8.70
17142;BMP180;32805;53.556;9.944;2023-02-13T10:09:43;103583.00;;;8.60
17142;BMP180;32805;53.556;9.944;2023-02-13T10:12:23;103585.00;;;8.60
17142;BMP180;32805;53.556;9.944;2023-02-13T10:14:59;103585.00;;;8.60
17142;BMP180;32805;53.556;9.944;2023-02-13T10:17:34;103577.00;;;8.70
17142;BMP180;32805;53.556;9.944;2023-02-13T10:20:06;103583.00;;;8.80
17142;BMP180;32805;53.556;9.944;2023-02-13T10:22:37;103578.00;;;8.80
17142;BMP180;32805;53.556;9.944;2023-02-13T10:25:11;103583.00;;;8.80
17142;BMP180;32805;53.556;9.944;2023-02-13T10:27:44;103577.00;;;8.90
17142;BMP180;32805;53.556;9.944;2023-02-13T10:30:17;103579.00;;;8.90
17142;BMP180;32805;53.556;9.944;2023-02-13T10:32:55;103582.00;;;8.90
17142;BMP180;32805;53.556;9.944;2023-02-13T10:35:37;103584.00;;;9.00
17142;BMP180;32805;53.556;9.944;2023-02-13T10:38:14;103575.00;;;9.00
17142;BMP180;32805;53.556;9.944;2023-02-13T10:40:51;103572.00;;;9.00
17142;BMP180;32805;53.556;9.944;2023-02-13T10:43:26;103570.00;;;9.00
17142;BMP180;32805;53.556;9.944;2023-02-13T10:46:02;103575.00;;;8.90
17142;BMP180;32805;53.556;9.944;2023-02-13T10:48:53;103570.00;;;9.00
17142;BMP180;32805;53.556;9.944;2023-02-13T10:51:32;103579.00;;;9.00
17142;BMP180;32805;53.556;9.944;2023-02-13T10:54:26;103579.00;;;9.00
17142;BMP180;32805;53.556;9.944;2023-02-13T10:57:02;103578.00;;;9.00
17142;BMP180;32805;53.556;9.944;2023-02-13T10:59:45;103568.00;;;9.00
17142;BMP180;32805;53.556;9.944;2023-02-13T11:02:22;103568.00;;;9.10
17142;BMP180;32805;53.556;9.944;2023-02-13T11:04:58;103567.00;;;9.00
17142;BMP180;32805;53.556;9.944;2023-02-13T11:07:27;103572.00;;;9.00
17142;BMP180;32805;53.556;9.944;2023-02-13T11:10:00;103565.00;;;9.00
17142;BMP180;32805;53.556;9.944;2023-02-13T11:12:31;103561.00;;;9.00
17142;BMP180;32805;53.556;9.944;2023-02-13T11:15:01;103571.00;;;9.00
17142;BMP180;32805;53.556;9.944;2023-02-13T11:17:30;103562.00;;;9.10
17142;BMP180;32805;53.556;9.944;2023-02-13T11:20:02;103567.00;;;9.00
17142;BMP180;32805;53.556;9.944;2023-02-13T11:22:32;103573.00;;;9.00
17142;BMP180;32805;53.556;9.944;2023-02-13T11:25:03;103570.00;;;9.10
17142;BMP180;32805;53.556;9.944;2023-02-13T11:27:34;103569.00;;;9.00
17142;BMP180;32805;53.556;9.944;2023-02-13T11:30:05;103563.00;;;9.10
17142;BMP180;32805;53.556;9.944;2023-02-13T11:32:34;103556.00;;;9.10
17142;BMP180;32805;53.556;9.944;2023-02-13T11:35:26;103559.00;;;9.20
17142;BMP180;32805;53.556;9.944;2023-02-13T11:38:12;103556.00;;;9.20
17142;BMP180;32805;53.556;9.944;2023-02-13T11:40:49;103546.00;;;9.40
17142;BMP180;32805;53.556;9.944;2023-02-13T11:43:22;103549.00;;;9.30
17142;BMP180;32805;53.556;9.944;2023-02-13T11:46:00;103546.00;;;9.30
17142;BMP180;32805;53.556;9.944;2023-02-13T11:48:29;103552.00;;;9.20
17142;BMP180;32805;53.556;9.944;2023-02-13T11:50:58;103558.00;;;9.20
17142;BMP180;32805;53.556;9.944;2023-02-13T11:53:29;103561.00;;;9.20
17142;BMP180;32805;53.556;9.944;2023-02-13T11:56:03;103563.00;;;9.20
17142;BMP180;32805;53.556;9.944;2023-02-13T11:58:32;103568.00;;;9.30
17142;BMP180;32805;53.556;9.944;2023-02-13T12:01:09;103559.00;;;9.20
17142;BMP180;32805;53.556;9.944;2023-02-13T12:03:40;103551.00;;;9.20
17142;BMP180;32805;53.556;9.944;2023-02-13T12:06:13;103552.00;;;9.30
17142;BMP180;32805;53.556;9.944;2023-02-13T12:08:43;103543.00;;;9.40
17142;BMP180;32805;53.556;9.944;2023-02-13T12:11:20;103530.00;;;9.40
17142;BMP180;32805;53.556;9.944;2023-02-13T12:13:49;103539.00;;;9.50
17142;BMP180;32805;53.556;9.944;2023-02-13T12:16:25;103534.00;;;9.50
17142;BMP180;32805;53.556;9.944;2023-02-13T12:18:55;103533.00;;;9.50
17142;BMP180;32805;53.556;9.944;2023-02-13T12:21:39;103535.00;;;9.50
17142;BMP180;32805;53.556;9.944;2023-02-13T12:24:19;103538.00;;;9.60
17142;BMP180;32805;53.556;9.944;2023-02-13T12:26:56;103540.00;;;9.70
17142;BMP180;32805;53.556;9.944;2023-02-13T12:29:45;103532.00;;;9.60
17142;BMP180;32805;53.556;9.944;2023-02-13T12:32:18;103530.00;;;9.60
17142;BMP180;32805;53.556;9.944;2023-02-13T12:35:13;103531.00;;;9.50
17142;BMP180;32805;53.556;9.944;2023-02-13T12:37:58;103525.00;;;9.60
17142;BMP180;32805;53.556;9.944;2023-02-13T12:40:54;103535.00;;;9.60
17142;BMP180;32805;53.556;9.944;2023-02-13T12:43:39;103536.00;;;9.50
17142;BMP180;32805;53.556;9.944;2023-02-13T12:46:16;103531.00;;;9.50
17142;BMP180;32805;53.556;9.944;2023-02-13T12:48:52;103531.00;;;9.50
17142;BMP180;32805;53.556;9.944;2023-02-13T12:51:33;103520.00;;;9.50
17142;BMP180;32805;53.556;9.944;2023-02-13T12:54:18;103530.00;;;9.50
17142;BMP180;32805;53.556;9.944;2023-02-13T12:56:58;103525.00;;;9.50
17142;BMP180;32805;53.556;9.944;2023-02-13T12:59:42;103531.00;;;9.50
17142;BMP180;32805;53.556;9.944;2023-02-13T13:05:29;103510.00;;;9.60
17142;BMP180;32805;53.556;9.944;2023-02-13T13:08:08;103520.00;;;9.60
17142;BMP180;32805;53.556;9.944;2023-02-13T13:10:48;103525.00;;;9.60
17142;BMP180;32805;53.556;9.944;2023-02-13T13:13:27;103524.00;;;9.60
17142;BMP180;32805;53.556;9.944;2023-02-13T13:16:00;103514.00;;;9.40
17142;BMP180;32805;53.556;9.944;2023-02-13T13:18:37;103519.00;;;9.40
17142;BMP180;32805;53.556;9.944;2023-02-13T13:21:15;103511.00;;;9.30
17142;BMP180;32805;53.556;9.944;2023-02-13T13:23:47;103507.00;;;9.20
17142;BMP180;32805;53.556;9.944;2023-02-13T13:26:21;103519.00;;;9.20
17142;BMP180;32805;53.556;9.944;2023-02-13T13:28:53;103509.00;;;9.20
17142;BMP180;32805;53.556;9.944;2023-02-13T13:31:23;103518.00;;;9.20
17142;BMP180;32805;53.556;9.944;2023-02-13T13:33:54;103512.00;;;9.30
17142;BMP180;32805;53.556;9.944;2023-02-13T13:36:33;103506.00;;;9.20
17142;BMP180;32805;53.556;9.944;2023-02-13T13:39:08;103511.00;;;9.20
17142;BMP180;32805;53.556;9.944;2023-02-13T13:41:53;103508.00;;;9.30
17142;BMP180;32805;53.556;9.944;2023-02-13T13:44:49;103503.00;;;9.30
17142;BMP180;32805;53.556;9.944;2023-02-13T13:47:26;103503.00;;;9.30
17142;BMP180;32805;53.556;9.944;2023-02-13T13:49:59;103494.00;;;9.30
17142;BMP180;32805;53.556;9.944;2023-02-13T13:52:29;103492.00;;;9.40
17142;BMP180;32805;53.556;9.944;2023-02-13T13:54:59;103480.00;;;9.20
17142;BMP180;32805;53.556;9.944;2023-02-13T13:57:59;103481.00;;;9.20
17142;BMP180;32805;53.556;9.944;2023-02-13T14:00:28;103481.00;;;9.20
17142;BMP180;32805;53.556;9.944;2023-02-13T14:03:24;103488.00;;;9.20
17142;BMP180;32805;53.556;9.944;2023-02-13T14:06:05;103499.00;;;9.20
17142;BMP180;32805;53.556;9.944;2023-02-13T14:09:08;103504.00;;;9.20
17142;BMP180;32805;53.556;9.944;2023-02-13T14:11:56;103505.00;;;9.20
17142;BMP180;32805;53.556;9.944;2023-02-13T14:14:47;103503.00;;;9.20
17142;BMP180;32805;53.556;9.944;2023-02-13T14:17:15;103504.00;;;9.10
17142;BMP180;32805;53.556;9.944;2023-02-13T14:19:50;103501.00;;;9.10
17142;BMP180;32805;53.556;9.944;2023-02-13T14:22:30;103499.00;;;9.10
17142;BMP180;32805;53.556;9.944;2023-02-13T14:25:00;103501.00;;;9.00
17142;BMP180;32805;53.556;9.944;2023-02-13T14:27:29;103504.00;;;8.90
17142;BMP180;32805;53.556;9.944;2023-02-13T14:30:00;103507.00;;;8.80
17142;BMP180;32805;53.556;9.944;2023-02-13T14:32:30;103512.00;;;8.80
17142;BMP180;32805;53.556;9.944;2023-02-13T14:35:01;103492.00;;;8.70
17142;BMP180;32805;53.556;9.944;2023-02-13T14:37:34;103505.00;;;8.70
17142;BMP180;32805;53.556;9.944;2023-02-13T14:40:28;103505.00;;;8.60
17142;BMP180;32805;53.556;9.944;2023-02-13T14:42:58;103503.00;;;8.60
17142;BMP180;32805;53.556;9.944;2023-02-13T14:45:30;103498.00;;;8.60
17142;BMP180;32805;53.556;9.944;2023-02-13T14:48:05;103500.00;;;8.50